sensor_id;sensor_type;location;lat;lon;timestamp;P1;durP1;ratioP1;P2;durP2;ratioP2
69392;SDS011;56582;44.624;20.378;2022-08-16T00:00:22;16.60;;;9.77;;
69392;SDS011;56582;44.624;20.378;2022-08-16T00:02:50;17.13;;;10.05;;
69392;SDS011;56582;44.624;20.378;2022-08-16T00:05:18;14.47;;;9.73;;
69392;SDS011;56582;44.624;20.378;2022-08-16T00:07:44;14.57;;;10.15;;
69392;SDS011;56582;44.624;20.378;2022-08-16T00:10:11;14.70;;;10.20;;
69392;SDS011;56582;44.624;20.378;2022-08-16T00:12:38;14.27;;;9.80;;
69392;SDS011;56582;44.624;20.378;2022-08-16T00:15:09;16.10;;;10.00;;
69392;SDS011;56582;44.624;20.378;2022-08-16T00:17:37;15.20;;;10.43;;
69392;SDS011;56582;44.624;20.378;2022-08-16T00:20:03;15.17;;;9.90;;
69392;SDS011;56582;44.624;20.378;2022-08-16T00:22:33;15.77;;;10.05;;
69392;SDS011;56582;44.624;20.378;2022-08-16T00:24:59;15.60;;;10.13;;
69392;SDS011;56582;44.624;20.378;2022-08-16T00:27:24;15.03;;;9.97;;
69392;SDS011;56582;44.624;20.378;2022-08-16T00:29:50;14.45;;;9.73;;
69392;SDS011;56582;44.624;20.378;2022-08-16T00:32:16;15.33;;;10.10;;
69392;SDS011;56582;44.624;20.378;2022-08-16T00:34:42;12.77;;;9.10;;
69392;SDS011;56582;44.624;20.378;2022-08-16T00:37:07;14.53;;;8.87;;
69392;SDS011;56582;44.624;20.378;2022-08-16T00:39:32;11.87;;;8.20;;
69392;SDS011;56582;44.624;20.378;2022-08-16T00:41:58;12.77;;;8.90;;
69392;SDS011;56582;44.624;20.378;2022-08-16T00:44:24;12.83;;;8.60;;
69392;SDS011;56582;44.624;20.378;2022-08-16T00:46:50;13.33;;;8.73;;
69392;SDS011;56582;44.624;20.378;2022-08-16T00:49:22;13.40;;;8.60;;
69392;SDS011;56582;44.624;20.378;2022-08-16T00:51:50;12.45;;;8.77;;
69392;SDS011;56582;44.624;20.378;2022-08-16T00:54:16;13.60;;;9.63;;
69392;SDS011;56582;44.624;20.378;2022-08-16T00:56:43;13.57;;;8.63;;
69392;SDS011;56582;44.624;20.378;2022-08-16T00:59:11;13.43;;;8.90;;
69392;SDS011;56582;44.624;20.378;2022-08-16T01:01:38;12.70;;;8.13;;
69392;SDS011;56582;44.624;20.378;2022-08-16T01:04:05;13.60;;;8.88;;
69392;SDS011;56582;44.624;20.378;2022-08-16T01:06:31;11.45;;;7.93;;
69392;SDS011;56582;44.624;20.378;2022-08-16T01:08:58;12.07;;;8.13;;
69392;SDS011;56582;44.624;20.378;2022-08-16T01:11:29;11.73;;;7.87;;
69392;SDS011;56582;44.624;20.378;2022-08-16T01:13:57;10.93;;;8.02;;
69392;SDS011;56582;44.624;20.378;2022-08-16T01:16:27;11.40;;;7.88;;
69392;SDS011;56582;44.624;20.378;2022-08-16T01:18:56;11.25;;;7.32;;
69392;SDS011;56582;44.624;20.378;2022-08-16T01:21:37;13.45;;;8.27;;
69392;SDS011;56582;44.624;20.378;2022-08-16T01:24:22;11.27;;;7.37;;
69392;SDS011;56582;44.624;20.378;2022-08-16T01:26:48;11.05;;;8.10;;
69392;SDS011;56582;44.624;20.378;2022-08-16T01:29:18;12.50;;;7.75;;
69392;SDS011;56582;44.624;20.378;2022-08-16T01:31:48;11.90;;;7.68;;
69392;SDS011;56582;44.624;20.378;2022-08-16T01:34:14;11.87;;;7.70;;
69392;SDS011;56582;44.624;20.378;2022-08-16T01:36:42;11.10;;;7.63;;
69392;SDS011;56582;44.624;20.378;2022-08-16T01:39:13;10.07;;;6.93;;
69392;SDS011;56582;44.624;20.378;2022-08-16T01:41:41;9.93;;;7.90;;
69392;SDS011;56582;44.624;20.378;2022-08-16T01:44:08;10.95;;;7.25;;
69392;SDS011;56582;44.624;20.378;2022-08-16T01:46:40;12.30;;;8.32;;
69392;SDS011;56582;44.624;20.378;2022-08-16T01:49:12;10.35;;;7.57;;
69392;SDS011;56582;44.624;20.378;2022-08-16T01:51:40;10.50;;;7.47;;
69392;SDS011;56582;44.624;20.378;2022-08-16T01:54:08;9.73;;;7.40;;
69392;SDS011;56582;44.624;20.378;2022-08-16T01:56:34;11.63;;;8.30;;
69392;SDS011;56582;44.624;20.378;2022-08-16T01:59:01;9.85;;;7.65;;
69392;SDS011;56582;44.624;20.378;2022-08-16T02:01:32;10.03;;;7.13;;
69392;SDS011;56582;44.624;20.378;2022-08-16T02:03:58;11.35;;;8.38;;
69392;SDS011;56582;44.624;20.378;2022-08-16T02:06:24;13.05;;;7.05;;
69392;SDS011;56582;44.624;20.378;2022-08-16T02:08:51;13.27;;;7.72;;
69392;SDS011;56582;44.624;20.378;2022-08-16T02:11:19;11.45;;;7.20;;
69392;SDS011;56582;44.624;20.378;2022-08-16T02:13:45;10.20;;;7.90;;
69392;SDS011;56582;44.624;20.378;2022-08-16T02:16:11;11.48;;;8.27;;
69392;SDS011;56582;44.624;20.378;2022-08-16T02:18:37;10.23;;;7.07;;
69392;SDS011;56582;44.624;20.378;2022-08-16T02:21:02;11.07;;;7.65;;
69392;SDS011;56582;44.624;20.378;2022-08-16T02:23:29;14.90;;;7.63;;
69392;SDS011;56582;44.624;20.378;2022-08-16T02:25:56;10.38;;;7.00;;
69392;SDS011;56582;44.624;20.378;2022-08-16T02:28:22;9.88;;;6.15;;
69392;SDS011;56582;44.624;20.378;2022-08-16T02:30:48;7.93;;;4.68;;
69392;SDS011;56582;44.624;20.378;2022-08-16T02:33:14;7.47;;;4.77;;
69392;SDS011;56582;44.624;20.378;2022-08-16T02:35:40;13.45;;;6.32;;
69392;SDS011;56582;44.624;20.378;2022-08-16T02:38:05;10.07;;;6.20;;
69392;SDS011;56582;44.624;20.378;2022-08-16T02:40:32;10.07;;;7.97;;
69392;SDS011;56582;44.624;20.378;2022-08-16T02:42:57;10.17;;;6.97;;
69392;SDS011;56582;44.624;20.378;2022-08-16T02:45:24;11.68;;;6.57;;
69392;SDS011;56582;44.624;20.378;2022-08-16T02:47:52;10.10;;;5.57;;
69392;SDS011;56582;44.624;20.378;2022-08-16T02:50:17;8.88;;;5.93;;
69392;SDS011;56582;44.624;20.378;2022-08-16T02:52:43;9.00;;;6.28;;
69392;SDS011;56582;44.624;20.378;2022-08-16T02:55:10;9.40;;;6.95;;
69392;SDS011;56582;44.624;20.378;2022-08-16T02:57:36;6.57;;;4.60;;
69392;SDS011;56582;44.624;20.378;2022-08-16T03:00:03;6.78;;;3.03;;
69392;SDS011;56582;44.624;20.378;2022-08-16T03:02:33;9.82;;;5.53;;
69392;SDS011;56582;44.624;20.378;2022-08-16T03:04:59;8.83;;;6.17;;
69392;SDS011;56582;44.624;20.378;2022-08-16T03:07:25;7.47;;;4.05;;
69392;SDS011;56582;44.624;20.378;2022-08-16T03:09:50;8.57;;;5.17;;
69392;SDS011;56582;44.624;20.378;2022-08-16T03:12:16;15.93;;;2.95;;
69392;SDS011;56582;44.624;20.378;2022-08-16T03:14:43;52.50;;;6.93;;
69392;SDS011;56582;44.624;20.378;2022-08-16T03:17:08;17.30;;;4.68;;
69392;SDS011;56582;44.624;20.378;2022-08-16T03:19:34;11.63;;;4.97;;
69392;SDS011;56582;44.624;20.378;2022-08-16T03:22:01;9.77;;;5.95;;
69392;SDS011;56582;44.624;20.378;2022-08-16T03:24:26;6.78;;;4.88;;
69392;SDS011;56582;44.624;20.378;2022-08-16T03:26:52;7.50;;;4.53;;
69392;SDS011;56582;44.624;20.378;2022-08-16T03:29:17;7.03;;;4.33;;
69392;SDS011;56582;44.624;20.378;2022-08-16T03:31:43;7.82;;;4.80;;
69392;SDS011;56582;44.624;20.378;2022-08-16T03:34:08;7.50;;;5.17;;
69392;SDS011;56582;44.624;20.378;2022-08-16T03:36:34;18.90;;;4.63;;
69392;SDS011;56582;44.624;20.378;2022-08-16T03:38:59;6.93;;;3.60;;
69392;SDS011;56582;44.624;20.378;2022-08-16T03:41:25;9.38;;;4.53;;
69392;SDS011;56582;44.624;20.378;2022-08-16T03:43:51;6.20;;;4.30;;
69392;SDS011;56582;44.624;20.378;2022-08-16T03:46:18;7.97;;;4.03;;
69392;SDS011;56582;44.624;20.378;2022-08-16T03:48:49;8.18;;;5.50;;
69392;SDS011;56582;44.624;20.378;2022-08-16T03:51:18;6.72;;;4.25;;
69392;SDS011;56582;44.624;20.378;2022-08-16T03:53:43;5.17;;;3.53;;
69392;SDS011;56582;44.624;20.378;2022-08-16T03:56:09;6.63;;;4.47;;
69392;SDS011;56582;44.624;20.378;2022-08-16T03:58:35;9.77;;;4.93;;
69392;SDS011;56582;44.624;20.378;2022-08-16T04:01:01;11.50;;;5.00;;
69392;SDS011;56582;44.624;20.378;2022-08-16T04:03:26;10.43;;;5.60;;
69392;SDS011;56582;44.624;20.378;2022-08-16T04:05:52;9.02;;;6.63;;
69392;SDS011;56582;44.624;20.378;2022-08-16T04:08:18;10.83;;;5.27;;
69392;SDS011;56582;44.624;20.378;2022-08-16T04:10:45;11.30;;;6.67;;
69392;SDS011;56582;44.624;20.378;2022-08-16T04:13:12;8.07;;;4.68;;
69392;SDS011;56582;44.624;20.378;2022-08-16T04:15:38;15.30;;;7.90;;
69392;SDS011;56582;44.624;20.378;2022-08-16T04:18:04;11.37;;;6.90;;
69392;SDS011;56582;44.624;20.378;2022-08-16T04:20:31;12.50;;;7.57;;
69392;SDS011;56582;44.624;20.378;2022-08-16T04:22:58;13.90;;;8.07;;
69392;SDS011;56582;44.624;20.378;2022-08-16T04:25:24;10.73;;;7.07;;
69392;SDS011;56582;44.624;20.378;2022-08-16T04:27:51;10.82;;;6.82;;
69392;SDS011;56582;44.624;20.378;2022-08-16T04:30:17;14.63;;;6.70;;
69392;SDS011;56582;44.624;20.378;2022-08-16T04:32:44;10.77;;;6.50;;
69392;SDS011;56582;44.624;20.378;2022-08-16T04:35:11;10.48;;;7.40;;
69392;SDS011;56582;44.624;20.378;2022-08-16T04:37:46;13.70;;;7.22;;
69392;SDS011;56582;44.624;20.378;2022-08-16T04:40:12;12.38;;;7.45;;
69392;SDS011;56582;44.624;20.378;2022-08-16T04:42:38;11.10;;;7.43;;
69392;SDS011;56582;44.624;20.378;2022-08-16T04:45:06;10.25;;;7.30;;
69392;SDS011;56582;44.624;20.378;2022-08-16T04:47:34;11.73;;;6.65;;
69392;SDS011;56582;44.624;20.378;2022-08-16T04:50:03;11.18;;;7.00;;
69392;SDS011;56582;44.624;20.378;2022-08-16T04:52:42;11.65;;;6.80;;
69392;SDS011;56582;44.624;20.378;2022-08-16T04:55:11;10.43;;;6.93;;
69392;SDS011;56582;44.624;20.378;2022-08-16T04:57:38;10.75;;;6.93;;
69392;SDS011;56582;44.624;20.378;2022-08-16T05:00:07;11.00;;;7.13;;
69392;SDS011;56582;44.624;20.378;2022-08-16T05:02:36;10.55;;;7.85;;
69392;SDS011;56582;44.624;20.378;2022-08-16T05:05:02;11.20;;;8.02;;
69392;SDS011;56582;44.624;20.378;2022-08-16T05:07:28;12.77;;;7.97;;
69392;SDS011;56582;44.624;20.378;2022-08-16T05:09:54;12.13;;;8.40;;
69392;SDS011;56582;44.624;20.378;2022-08-16T05:12:22;12.00;;;8.00;;
69392;SDS011;56582;44.624;20.378;2022-08-16T05:14:48;16.60;;;8.50;;
69392;SDS011;56582;44.624;20.378;2022-08-16T05:17:13;11.37;;;8.23;;
69392;SDS011;56582;44.624;20.378;2022-08-16T05:19:39;11.47;;;7.87;;
69392;SDS011;56582;44.624;20.378;2022-08-16T05:22:04;11.47;;;7.73;;
69392;SDS011;56582;44.624;20.378;2022-08-16T05:24:30;14.13;;;7.68;;
69392;SDS011;56582;44.624;20.378;2022-08-16T05:26:55;11.40;;;7.87;;
69392;SDS011;56582;44.624;20.378;2022-08-16T05:29:21;11.83;;;7.63;;
69392;SDS011;56582;44.624;20.378;2022-08-16T05:31:47;12.48;;;8.02;;
69392;SDS011;56582;44.624;20.378;2022-08-16T05:34:15;12.63;;;8.40;;
69392;SDS011;56582;44.624;20.378;2022-08-16T05:36:46;12.53;;;8.57;;
69392;SDS011;56582;44.624;20.378;2022-08-16T05:39:16;13.85;;;8.88;;
69392;SDS011;56582;44.624;20.378;2022-08-16T05:41:41;13.60;;;9.63;;
69392;SDS011;56582;44.624;20.378;2022-08-16T05:44:07;14.00;;;9.85;;
69392;SDS011;56582;44.624;20.378;2022-08-16T05:46:33;14.20;;;9.70;;
69392;SDS011;56582;44.624;20.378;2022-08-16T05:48:58;18.50;;;11.52;;
69392;SDS011;56582;44.624;20.378;2022-08-16T05:51:24;12.77;;;9.05;;
69392;SDS011;56582;44.624;20.378;2022-08-16T05:53:50;15.80;;;8.93;;
69392;SDS011;56582;44.624;20.378;2022-08-16T05:56:16;16.33;;;10.20;;
69392;SDS011;56582;44.624;20.378;2022-08-16T05:58:41;15.23;;;11.10;;
69392;SDS011;56582;44.624;20.378;2022-08-16T06:01:07;17.97;;;12.03;;
69392;SDS011;56582;44.624;20.378;2022-08-16T06:03:32;20.33;;;12.77;;
69392;SDS011;56582;44.624;20.378;2022-08-16T06:05:58;18.33;;;12.45;;
69392;SDS011;56582;44.624;20.378;2022-08-16T06:08:24;19.13;;;13.57;;
69392;SDS011;56582;44.624;20.378;2022-08-16T06:10:50;14.82;;;10.43;;
69392;SDS011;56582;44.624;20.378;2022-08-16T06:13:15;13.33;;;9.10;;
69392;SDS011;56582;44.624;20.378;2022-08-16T06:15:41;15.25;;;10.93;;
69392;SDS011;56582;44.624;20.378;2022-08-16T06:18:06;13.77;;;10.50;;
69392;SDS011;56582;44.624;20.378;2022-08-16T06:20:32;11.00;;;8.30;;
69392;SDS011;56582;44.624;20.378;2022-08-16T06:22:57;11.00;;;8.20;;
69392;SDS011;56582;44.624;20.378;2022-08-16T06:25:23;14.40;;;8.53;;
69392;SDS011;56582;44.624;20.378;2022-08-16T06:27:50;9.93;;;7.22;;
69392;SDS011;56582;44.624;20.378;2022-08-16T06:30:17;10.27;;;7.93;;
69392;SDS011;56582;44.624;20.378;2022-08-16T06:32:42;9.30;;;7.03;;
69392;SDS011;56582;44.624;20.378;2022-08-16T06:35:08;10.68;;;7.50;;
69392;SDS011;56582;44.624;20.378;2022-08-16T06:37:35;11.15;;;7.70;;
69392;SDS011;56582;44.624;20.378;2022-08-16T06:40:01;9.57;;;6.87;;
69392;SDS011;56582;44.624;20.378;2022-08-16T06:42:27;9.88;;;6.78;;
69392;SDS011;56582;44.624;20.378;2022-08-16T06:44:53;9.87;;;6.90;;
69392;SDS011;56582;44.624;20.378;2022-08-16T06:47:18;8.33;;;6.53;;
69392;SDS011;56582;44.624;20.378;2022-08-16T06:49:44;8.73;;;6.70;;
69392;SDS011;56582;44.624;20.378;2022-08-16T06:52:09;9.38;;;6.80;;
69392;SDS011;56582;44.624;20.378;2022-08-16T06:54:35;8.90;;;6.20;;
69392;SDS011;56582;44.624;20.378;2022-08-16T06:57:01;9.27;;;6.65;;
69392;SDS011;56582;44.624;20.378;2022-08-16T06:59:26;8.45;;;6.63;;
69392;SDS011;56582;44.624;20.378;2022-08-16T07:01:52;9.73;;;7.10;;
69392;SDS011;56582;44.624;20.378;2022-08-16T07:04:18;8.63;;;6.40;;
69392;SDS011;56582;44.624;20.378;2022-08-16T07:06:44;9.83;;;6.70;;
69392;SDS011;56582;44.624;20.378;2022-08-16T07:09:10;9.25;;;6.70;;
69392;SDS011;56582;44.624;20.378;2022-08-16T07:11:37;9.30;;;6.27;;
69392;SDS011;56582;44.624;20.378;2022-08-16T07:14:02;8.43;;;5.85;;
69392;SDS011;56582;44.624;20.378;2022-08-16T07:16:28;9.83;;;6.37;;
69392;SDS011;56582;44.624;20.378;2022-08-16T07:18:53;11.77;;;8.47;;
69392;SDS011;56582;44.624;20.378;2022-08-16T07:21:19;10.65;;;7.00;;
69392;SDS011;56582;44.624;20.378;2022-08-16T07:23:46;12.15;;;5.95;;
69392;SDS011;56582;44.624;20.378;2022-08-16T07:26:21;9.17;;;5.70;;
69392;SDS011;56582;44.624;20.378;2022-08-16T07:28:48;9.00;;;5.43;;
69392;SDS011;56582;44.624;20.378;2022-08-16T07:31:14;8.82;;;5.40;;
69392;SDS011;56582;44.624;20.378;2022-08-16T07:33:41;8.32;;;5.50;;
69392;SDS011;56582;44.624;20.378;2022-08-16T07:36:08;7.13;;;5.00;;
69392;SDS011;56582;44.624;20.378;2022-08-16T07:38:34;7.43;;;5.47;;
69392;SDS011;56582;44.624;20.378;2022-08-16T07:41:00;9.00;;;5.33;;
69392;SDS011;56582;44.624;20.378;2022-08-16T07:43:25;8.02;;;5.47;;
69392;SDS011;56582;44.624;20.378;2022-08-16T07:45:51;7.27;;;5.40;;
69392;SDS011;56582;44.624;20.378;2022-08-16T07:48:17;7.75;;;5.38;;
69392;SDS011;56582;44.624;20.378;2022-08-16T07:50:43;8.15;;;5.38;;
69392;SDS011;56582;44.624;20.378;2022-08-16T07:53:09;6.77;;;5.47;;
69392;SDS011;56582;44.624;20.378;2022-08-16T07:55:35;8.05;;;5.82;;
69392;SDS011;56582;44.624;20.378;2022-08-16T07:58:01;9.40;;;5.50;;
69392;SDS011;56582;44.624;20.378;2022-08-16T08:00:27;8.40;;;5.60;;
69392;SDS011;56582;44.624;20.378;2022-08-16T08:02:53;9.30;;;5.93;;
69392;SDS011;56582;44.624;20.378;2022-08-16T08:05:20;8.20;;;5.50;;
69392;SDS011;56582;44.624;20.378;2022-08-16T08:07:47;7.83;;;5.77;;
69392;SDS011;56582;44.624;20.378;2022-08-16T08:10:13;7.10;;;5.57;;
69392;SDS011;56582;44.624;20.378;2022-08-16T08:12:39;7.93;;;5.43;;
69392;SDS011;56582;44.624;20.378;2022-08-16T08:15:05;8.50;;;5.40;;
69392;SDS011;56582;44.624;20.378;2022-08-16T08:17:33;8.13;;;5.75;;
69392;SDS011;56582;44.624;20.378;2022-08-16T08:20:02;7.40;;;5.40;;
69392;SDS011;56582;44.624;20.378;2022-08-16T08:22:29;8.18;;;5.90;;
69392;SDS011;56582;44.624;20.378;2022-08-16T08:24:54;8.97;;;6.30;;
69392;SDS011;56582;44.624;20.378;2022-08-16T08:27:20;10.13;;;6.07;;
69392;SDS011;56582;44.624;20.378;2022-08-16T08:29:45;7.60;;;5.73;;
69392;SDS011;56582;44.624;20.378;2022-08-16T08:32:11;9.63;;;6.40;;
69392;SDS011;56582;44.624;20.378;2022-08-16T08:34:37;9.88;;;5.95;;
69392;SDS011;56582;44.624;20.378;2022-08-16T08:37:02;11.00;;;5.70;;
69392;SDS011;56582;44.624;20.378;2022-08-16T08:39:28;7.67;;;5.00;;
69392;SDS011;56582;44.624;20.378;2022-08-16T08:41:53;8.90;;;4.95;;
69392;SDS011;56582;44.624;20.378;2022-08-16T08:44:19;9.43;;;5.00;;
69392;SDS011;56582;44.624;20.378;2022-08-16T08:46:45;8.70;;;5.18;;
69392;SDS011;56582;44.624;20.378;2022-08-16T08:49:11;11.03;;;5.13;;
69392;SDS011;56582;44.624;20.378;2022-08-16T08:51:36;6.93;;;5.63;;
69392;SDS011;56582;44.624;20.378;2022-08-16T08:54:05;9.90;;;5.80;;
69392;SDS011;56582;44.624;20.378;2022-08-16T08:56:32;8.57;;;5.80;;
69392;SDS011;56582;44.624;20.378;2022-08-16T08:59:01;8.38;;;6.10;;
69392;SDS011;56582;44.624;20.378;2022-08-16T09:01:29;7.20;;;5.40;;
69392;SDS011;56582;44.624;20.378;2022-08-16T09:03:57;8.73;;;5.87;;
69392;SDS011;56582;44.624;20.378;2022-08-16T09:06:22;9.75;;;6.10;;
69392;SDS011;56582;44.624;20.378;2022-08-16T09:08:47;8.57;;;5.60;;
69392;SDS011;56582;44.624;20.378;2022-08-16T09:11:13;9.87;;;6.07;;
69392;SDS011;56582;44.624;20.378;2022-08-16T09:13:38;7.60;;;6.07;;
69392;SDS011;56582;44.624;20.378;2022-08-16T09:16:04;7.78;;;5.90;;
69392;SDS011;56582;44.624;20.378;2022-08-16T09:18:30;11.25;;;5.63;;
69392;SDS011;56582;44.624;20.378;2022-08-16T09:20:56;8.57;;;6.03;;
69392;SDS011;56582;44.624;20.378;2022-08-16T09:23:23;7.70;;;5.70;;
69392;SDS011;56582;44.624;20.378;2022-08-16T09:25:49;7.03;;;5.30;;
69392;SDS011;56582;44.624;20.378;2022-08-16T09:28:15;9.10;;;5.32;;
69392;SDS011;56582;44.624;20.378;2022-08-16T09:30:42;7.53;;;5.60;;
69392;SDS011;56582;44.624;20.378;2022-08-16T09:33:07;9.30;;;6.47;;
69392;SDS011;56582;44.624;20.378;2022-08-16T09:35:34;8.50;;;5.97;;
69392;SDS011;56582;44.624;20.378;2022-08-16T09:38:01;8.80;;;5.37;;
69392;SDS011;56582;44.624;20.378;2022-08-16T09:40:28;8.77;;;5.78;;
69392;SDS011;56582;44.624;20.378;2022-08-16T09:42:53;9.23;;;5.70;;
69392;SDS011;56582;44.624;20.378;2022-08-16T09:45:21;9.02;;;5.60;;
69392;SDS011;56582;44.624;20.378;2022-08-16T09:47:47;9.30;;;5.38;;
69392;SDS011;56582;44.624;20.378;2022-08-16T09:50:18;7.67;;;5.10;;
69392;SDS011;56582;44.624;20.378;2022-08-16T09:52:43;9.63;;;5.45;;
69392;SDS011;56582;44.624;20.378;2022-08-16T09:55:09;7.97;;;5.47;;
69392;SDS011;56582;44.624;20.378;2022-08-16T09:57:36;10.75;;;5.15;;
69392;SDS011;56582;44.624;20.378;2022-08-16T10:00:03;9.02;;;5.05;;
69392;SDS011;56582;44.624;20.378;2022-08-16T10:02:31;9.25;;;5.53;;
69392;SDS011;56582;44.624;20.378;2022-08-16T10:04:57;9.13;;;5.17;;
69392;SDS011;56582;44.624;20.378;2022-08-16T10:07:24;10.10;;;5.03;;
69392;SDS011;56582;44.624;20.378;2022-08-16T10:09:51;8.63;;;4.60;;
69392;SDS011;56582;44.624;20.378;2022-08-16T10:12:17;7.07;;;4.77;;
69392;SDS011;56582;44.624;20.378;2022-08-16T10:15:01;8.82;;;5.07;;
69392;SDS011;56582;44.624;20.378;2022-08-16T10:17:27;7.80;;;5.10;;
69392;SDS011;56582;44.624;20.378;2022-08-16T10:19:52;10.17;;;5.50;;
69392;SDS011;56582;44.624;20.378;2022-08-16T10:22:19;7.28;;;4.43;;
69392;SDS011;56582;44.624;20.378;2022-08-16T10:24:44;7.10;;;4.57;;
69392;SDS011;56582;44.624;20.378;2022-08-16T10:27:10;7.00;;;4.85;;
69392;SDS011;56582;44.624;20.378;2022-08-16T10:29:36;7.73;;;4.67;;
69392;SDS011;56582;44.624;20.378;2022-08-16T10:32:02;8.07;;;4.80;;
69392;SDS011;56582;44.624;20.378;2022-08-16T10:34:27;12.47;;;4.93;;
69392;SDS011;56582;44.624;20.378;2022-08-16T10:36:53;7.73;;;4.97;;
69392;SDS011;56582;44.624;20.378;2022-08-16T10:39:18;7.65;;;4.90;;
69392;SDS011;56582;44.624;20.378;2022-08-16T10:41:44;7.97;;;5.20;;
69392;SDS011;56582;44.624;20.378;2022-08-16T10:44:09;6.97;;;4.40;;
69392;SDS011;56582;44.624;20.378;2022-08-16T10:46:35;7.32;;;4.72;;
69392;SDS011;56582;44.624;20.378;2022-08-16T10:49:01;7.13;;;4.70;;
69392;SDS011;56582;44.624;20.378;2022-08-16T10:51:26;8.90;;;4.60;;
69392;SDS011;56582;44.624;20.378;2022-08-16T10:53:52;7.00;;;4.60;;
69392;SDS011;56582;44.624;20.378;2022-08-16T10:56:18;7.70;;;4.75;;
69392;SDS011;56582;44.624;20.378;2022-08-16T10:58:43;8.90;;;4.77;;
69392;SDS011;56582;44.624;20.378;2022-08-16T11:01:09;8.48;;;4.75;;
69392;SDS011;56582;44.624;20.378;2022-08-16T11:03:36;6.82;;;4.53;;
69392;SDS011;56582;44.624;20.378;2022-08-16T11:06:03;7.97;;;4.73;;
69392;SDS011;56582;44.624;20.378;2022-08-16T11:08:30;6.65;;;4.45;;
69392;SDS011;56582;44.624;20.378;2022-08-16T11:10:56;8.65;;;4.93;;
69392;SDS011;56582;44.624;20.378;2022-08-16T11:13:23;7.83;;;4.87;;
69392;SDS011;56582;44.624;20.378;2022-08-16T11:15:51;8.18;;;4.28;;
69392;SDS011;56582;44.624;20.378;2022-08-16T11:18:17;7.28;;;4.45;;
69392;SDS011;56582;44.624;20.378;2022-08-16T11:20:42;6.27;;;4.60;;
69392;SDS011;56582;44.624;20.378;2022-08-16T11:23:11;6.60;;;4.78;;
69392;SDS011;56582;44.624;20.378;2022-08-16T11:25:37;6.60;;;4.40;;
69392;SDS011;56582;44.624;20.378;2022-08-16T11:28:03;7.40;;;4.90;;
69392;SDS011;56582;44.624;20.378;2022-08-16T11:30:30;9.10;;;5.17;;
69392;SDS011;56582;44.624;20.378;2022-08-16T11:32:57;9.55;;;4.88;;
69392;SDS011;56582;44.624;20.378;2022-08-16T11:35:26;8.32;;;5.80;;
69392;SDS011;56582;44.624;20.378;2022-08-16T11:37:57;7.65;;;5.38;;
69392;SDS011;56582;44.624;20.378;2022-08-16T11:40:26;7.97;;;5.32;;
69392;SDS011;56582;44.624;20.378;2022-08-16T11:42:55;10.00;;;5.60;;
69392;SDS011;56582;44.624;20.378;2022-08-16T11:45:21;9.02;;;5.20;;
69392;SDS011;56582;44.624;20.378;2022-08-16T11:47:47;10.82;;;5.10;;
69392;SDS011;56582;44.624;20.378;2022-08-16T11:50:13;8.80;;;5.03;;
69392;SDS011;56582;44.624;20.378;2022-08-16T11:52:39;8.02;;;5.63;;
69392;SDS011;56582;44.624;20.378;2022-08-16T11:55:06;10.07;;;5.30;;
69392;SDS011;56582;44.624;20.378;2022-08-16T11:57:35;10.23;;;5.90;;
69392;SDS011;56582;44.624;20.378;2022-08-16T12:00:01;8.65;;;4.80;;
69392;SDS011;56582;44.624;20.378;2022-08-16T12:02:28;7.65;;;4.60;;
69392;SDS011;56582;44.624;20.378;2022-08-16T12:04:53;9.17;;;4.90;;
69392;SDS011;56582;44.624;20.378;2022-08-16T12:07:19;8.40;;;5.40;;
69392;SDS011;56582;44.624;20.378;2022-08-16T12:09:45;8.75;;;4.68;;
69392;SDS011;56582;44.624;20.378;2022-08-16T12:12:10;10.30;;;4.93;;
69392;SDS011;56582;44.624;20.378;2022-08-16T12:14:36;7.70;;;5.13;;
69392;SDS011;56582;44.624;20.378;2022-08-16T12:17:02;8.38;;;5.00;;
69392;SDS011;56582;44.624;20.378;2022-08-16T12:19:29;6.63;;;5.13;;
69392;SDS011;56582;44.624;20.378;2022-08-16T12:21:55;7.33;;;4.53;;
69392;SDS011;56582;44.624;20.378;2022-08-16T12:24:21;9.38;;;4.78;;
69392;SDS011;56582;44.624;20.378;2022-08-16T12:26:46;9.37;;;4.30;;
69392;SDS011;56582;44.624;20.378;2022-08-16T12:29:12;9.05;;;4.68;;
69392;SDS011;56582;44.624;20.378;2022-08-16T12:31:38;7.47;;;4.78;;
69392;SDS011;56582;44.624;20.378;2022-08-16T12:34:04;8.40;;;4.00;;
69392;SDS011;56582;44.624;20.378;2022-08-16T12:36:32;6.50;;;4.43;;
69392;SDS011;56582;44.624;20.378;2022-08-16T12:38:59;8.98;;;4.32;;
69392;SDS011;56582;44.624;20.378;2022-08-16T12:41:26;6.20;;;4.27;;
69392;SDS011;56582;44.624;20.378;2022-08-16T12:43:53;8.73;;;4.50;;
69392;SDS011;56582;44.624;20.378;2022-08-16T12:46:19;6.93;;;4.25;;
69392;SDS011;56582;44.624;20.378;2022-08-16T12:48:45;6.68;;;4.05;;
69392;SDS011;56582;44.624;20.378;2022-08-16T12:51:24;6.03;;;4.28;;
69392;SDS011;56582;44.624;20.378;2022-08-16T12:53:54;8.20;;;4.30;;
69392;SDS011;56582;44.624;20.378;2022-08-16T12:56:22;7.10;;;4.03;;
69392;SDS011;56582;44.624;20.378;2022-08-16T12:58:51;7.28;;;4.60;;
69392;SDS011;56582;44.624;20.378;2022-08-16T13:01:21;9.00;;;4.43;;
69392;SDS011;56582;44.624;20.378;2022-08-16T13:03:50;11.85;;;4.78;;
69392;SDS011;56582;44.624;20.378;2022-08-16T13:06:19;7.70;;;4.27;;
69392;SDS011;56582;44.624;20.378;2022-08-16T13:08:46;8.52;;;4.53;;
69392;SDS011;56582;44.624;20.378;2022-08-16T13:11:12;7.00;;;4.85;;
69392;SDS011;56582;44.624;20.378;2022-08-16T13:13:40;8.07;;;4.13;;
69392;SDS011;56582;44.624;20.378;2022-08-16T13:16:05;7.30;;;4.53;;
69392;SDS011;56582;44.624;20.378;2022-08-16T13:18:31;8.68;;;4.72;;
69392;SDS011;56582;44.624;20.378;2022-08-16T13:21:00;7.40;;;4.50;;
69392;SDS011;56582;44.624;20.378;2022-08-16T13:23:26;8.73;;;4.47;;
69392;SDS011;56582;44.624;20.378;2022-08-16T13:25:52;7.73;;;4.47;;
69392;SDS011;56582;44.624;20.378;2022-08-16T13:28:17;5.67;;;3.80;;
69392;SDS011;56582;44.624;20.378;2022-08-16T13:30:53;6.28;;;4.50;;
69392;SDS011;56582;44.624;20.378;2022-08-16T13:33:22;8.87;;;4.23;;
69392;SDS011;56582;44.624;20.378;2022-08-16T13:35:54;7.43;;;3.75;;
69392;SDS011;56582;44.624;20.378;2022-08-16T13:38:21;7.00;;;4.00;;
69392;SDS011;56582;44.624;20.378;2022-08-16T13:40:46;7.10;;;4.33;;
69392;SDS011;56582;44.624;20.378;2022-08-16T13:43:13;6.32;;;4.35;;
69392;SDS011;56582;44.624;20.378;2022-08-16T13:45:38;6.15;;;4.32;;
69392;SDS011;56582;44.624;20.378;2022-08-16T13:48:04;7.32;;;4.82;;
69392;SDS011;56582;44.624;20.378;2022-08-16T13:50:31;8.97;;;4.20;;
69392;SDS011;56582;44.624;20.378;2022-08-16T13:52:58;7.97;;;4.43;;
69392;SDS011;56582;44.624;20.378;2022-08-16T13:55:25;6.97;;;4.30;;
69392;SDS011;56582;44.624;20.378;2022-08-16T13:57:50;8.73;;;4.35;;
69392;SDS011;56582;44.624;20.378;2022-08-16T14:00:16;6.57;;;3.83;;
69392;SDS011;56582;44.624;20.378;2022-08-16T14:02:42;7.03;;;4.05;;
69392;SDS011;56582;44.624;20.378;2022-08-16T14:05:09;9.52;;;4.38;;
69392;SDS011;56582;44.624;20.378;2022-08-16T14:07:35;7.10;;;3.97;;
69392;SDS011;56582;44.624;20.378;2022-08-16T14:10:05;8.73;;;4.70;;
69392;SDS011;56582;44.624;20.378;2022-08-16T14:12:33;7.80;;;4.00;;
69392;SDS011;56582;44.624;20.378;2022-08-16T14:14:59;5.68;;;3.80;;
69392;SDS011;56582;44.624;20.378;2022-08-16T14:17:26;8.25;;;4.72;;
69392;SDS011;56582;44.624;20.378;2022-08-16T14:19:53;7.80;;;4.57;;
69392;SDS011;56582;44.624;20.378;2022-08-16T14:22:21;6.45;;;4.10;;
69392;SDS011;56582;44.624;20.378;2022-08-16T14:24:49;9.73;;;4.40;;